sensor_id;sensor_type;location;lat;lon;timestamp;pressure;altitude;pressure_sealevel;temperature
41940;BMP180;23057;48.554;14.454;2023-02-01T00:02:19;93842.00;;;7.80
41940;BMP180;23057;48.554;14.454;2023-02-01T00:04:49;93837.00;;;7.80
41940;BMP180;23057;48.554;14.454;2023-02-01T00:07:20;93836.00;;;7.80
41940;BMP180;23057;48.554;14.454;2023-02-01T00:09:51;93848.00;;;7.80
41940;BMP180;23057;48.554;14.454;2023-02-01T00:12:21;93841.00;;;7.80
41940;BMP180;23057;48.554;14.454;2023-02-01T00:14:52;93844.00;;;7.80
41940;BMP180;23057;48.554;14.454;2023-02-01T00:17:23;93821.00;;;7.80
41940;BMP180;23057;48.554;14.454;2023-02-01T00:19:54;93830.00;;;7.80
41940;BMP180;23057;48.554;14.454;2023-02-01T00:22:25;93830.00;;;7.70
41940;BMP180;23057;48.554;14.454;2023-02-01T00:24:56;93836.00;;;7.70
41940;BMP180;23057;48.554;14.454;2023-02-01T00:27:26;93828.00;;;7.70
41940;BMP180;23057;48.554;14.454;2023-02-01T00:29:57;93824.00;;;7.80
41940;BMP180;23057;48.554;14.454;2023-02-01T00:32:28;93817.00;;;7.80
41940;BMP180;23057;48.554;14.454;2023-02-01T00:34:59;93825.00;;;7.80
41940;BMP180;23057;48.554;14.454;2023-02-01T00:37:29;93832.00;;;7.80
41940;BMP180;23057;48.554;14.454;2023-02-01T00:40:00;93825.00;;;7.80
41940;BMP180;23057;48.554;14.454;2023-02-01T00:42:31;93831.00;;;7.80
41940;BMP180;23057;48.554;14.454;2023-02-01T00:45:02;93825.00;;;7.80
41940;BMP180;23057;48.554;14.454;2023-02-01T00:47:32;93819.00;;;7.80
41940;BMP180;23057;48.554;14.454;2023-02-01T00:50:04;93820.00;;;7.80
41940;BMP180;23057;48.554;14.454;2023-02-01T00:52:35;93816.00;;;7.80
41940;BMP180;23057;48.554;14.454;2023-02-01T00:55:06;93812.00;;;7.80
41940;BMP180;23057;48.554;14.454;2023-02-01T00:57:37;93810.00;;;7.90
41940;BMP180;23057;48.554;14.454;2023-02-01T01:00:08;93806.00;;;7.80
41940;BMP180;23057;48.554;14.454;2023-02-01T01:02:39;93802.00;;;7.90
41940;BMP180;23057;48.554;14.454;2023-02-01T01:05:10;93794.00;;;7.90
41940;BMP180;23057;48.554;14.454;2023-02-01T01:07:40;93791.00;;;7.90
41940;BMP180;23057;48.554;14.454;2023-02-01T01:10:11;93803.00;;;7.90
41940;BMP180;23057;48.554;14.454;2023-02-01T01:12:42;93801.00;;;7.90
41940;BMP180;23057;48.554;14.454;2023-02-01T01:15:13;93805.00;;;8.00
41940;BMP180;23057;48.554;14.454;2023-02-01T01:17:43;93797.00;;;8.00
41940;BMP180;23057;48.554;14.454;2023-02-01T01:20:14;93798.00;;;8.00
41940;BMP180;23057;48.554;14.454;2023-02-01T01:22:47;93797.00;;;7.90
41940;BMP180;23057;48.554;14.454;2023-02-01T01:25:18;93803.00;;;8.00
41940;BMP180;23057;48.554;14.454;2023-02-01T01:27:49;93799.00;;;8.00
41940;BMP180;23057;48.554;14.454;2023-02-01T01:30:20;93790.00;;;8.00
41940;BMP180;23057;48.554;14.454;2023-02-01T01:32:51;93801.00;;;8.00
41940;BMP180;23057;48.554;14.454;2023-02-01T01:35:22;93797.00;;;8.00
41940;BMP180;23057;48.554;14.454;2023-02-01T01:37:53;93799.00;;;8.00
41940;BMP180;23057;48.554;14.454;2023-02-01T01:40:24;93817.00;;;8.00
41940;BMP180;23057;48.554;14.454;2023-02-01T01:42:56;93792.00;;;7.90
41940;BMP180;23057;48.554;14.454;2023-02-01T01:45:34;93810.00;;;7.90
41940;BMP180;23057;48.554;14.454;2023-02-01T01:51:03;93808.00;;;7.90
41940;BMP180;23057;48.554;14.454;2023-02-01T01:53:50;93803.00;;;7.90
41940;BMP180;23057;48.554;14.454;2023-02-01T01:56:29;93786.00;;;7.90
41940;BMP180;23057;48.554;14.454;2023-02-01T01:59:04;93780.00;;;7.90
41940;BMP180;23057;48.554;14.454;2023-02-01T02:01:35;93791.00;;;7.90
41940;BMP180;23057;48.554;14.454;2023-02-01T02:04:06;93790.00;;;7.90
41940;BMP180;23057;48.554;14.454;2023-02-01T02:06:42;93791.00;;;7.90
41940;BMP180;23057;48.554;14.454;2023-02-01T02:09:18;93775.00;;;7.90
41940;BMP180;23057;48.554;14.454;2023-02-01T02:11:49;93796.00;;;7.90
41940;BMP180;23057;48.554;14.454;2023-02-01T02:14:21;93791.00;;;7.90
41940;BMP180;23057;48.554;14.454;2023-02-01T02:29:54;93793.00;;;8.00
41940;BMP180;23057;48.554;14.454;2023-02-01T02:32:55;93785.00;;;8.00
41940;BMP180;23057;48.554;14.454;2023-02-01T02:39:25;93789.00;;;8.10
41940;BMP180;23057;48.554;14.454;2023-02-01T02:48:47;93777.00;;;8.10
41940;BMP180;23057;48.554;14.454;2023-02-01T02:51:29;93775.00;;;8.10
41940;BMP180;23057;48.554;14.454;2023-02-01T02:54:32;93779.00;;;8.20
41940;BMP180;23057;48.554;14.454;2023-02-01T02:57:30;93780.00;;;8.20
41940;BMP180;23057;48.554;14.454;2023-02-01T03:00:29;93764.00;;;8.20
41940;BMP180;23057;48.554;14.454;2023-02-01T03:03:22;93782.00;;;8.20
41940;BMP180;23057;48.554;14.454;2023-02-01T03:06:16;93777.00;;;8.20
41940;BMP180;23057;48.554;14.454;2023-02-01T03:08:49;93773.00;;;8.30
41940;BMP180;23057;48.554;14.454;2023-02-01T03:11:24;93763.00;;;8.20
41940;BMP180;23057;48.554;14.454;2023-02-01T03:14:16;93773.00;;;8.30
41940;BMP180;23057;48.554;14.454;2023-02-01T03:16:58;93776.00;;;8.30
41940;BMP180;23057;48.554;14.454;2023-02-01T03:19:41;93776.00;;;8.30
41940;BMP180;23057;48.554;14.454;2023-02-01T03:22:27;93777.00;;;8.20
41940;BMP180;23057;48.554;14.454;2023-02-01T03:25:09;93769.00;;;8.20
41940;BMP180;23057;48.554;14.454;2023-02-01T03:27:53;93777.00;;;8.20
41940;BMP180;23057;48.554;14.454;2023-02-01T03:30:42;93765.00;;;8.20
41940;BMP180;23057;48.554;14.454;2023-02-01T03:33:17;93775.00;;;8.20
41940;BMP180;23057;48.554;14.454;2023-02-01T03:36:15;93765.00;;;8.20
41940;BMP180;23057;48.554;14.454;2023-02-01T03:39:03;93766.00;;;8.20
41940;BMP180;23057;48.554;14.454;2023-02-01T03:41:47;93761.00;;;8.20
41940;BMP180;23057;48.554;14.454;2023-02-01T03:47:39;93760.00;;;8.20
41940;BMP180;23057;48.554;14.454;2023-02-01T03:50:17;93759.00;;;8.20
41940;BMP180;23057;48.554;14.454;2023-02-01T03:53:02;93752.00;;;8.20
41940;BMP180;23057;48.554;14.454;2023-02-01T03:55:37;93747.00;;;8.30
41940;BMP180;23057;48.554;14.454;2023-02-01T03:58:18;93755.00;;;8.20
41940;BMP180;23057;48.554;14.454;2023-02-01T04:00:57;93749.00;;;8.30
41940;BMP180;23057;48.554;14.454;2023-02-01T04:03:29;93756.00;;;8.30
41940;BMP180;23057;48.554;14.454;2023-02-01T04:06:00;93751.00;;;8.30
41940;BMP180;23057;48.554;14.454;2023-02-01T04:08:31;93743.00;;;8.20
41940;BMP180;23057;48.554;14.454;2023-02-01T04:11:01;93743.00;;;8.20
41940;BMP180;23057;48.554;14.454;2023-02-01T04:13:32;93741.00;;;8.20
41940;BMP180;23057;48.554;14.454;2023-02-01T04:16:03;93741.00;;;8.20
41940;BMP180;23057;48.554;14.454;2023-02-01T04:18:34;93736.00;;;8.20
41940;BMP180;23057;48.554;14.454;2023-02-01T04:21:05;93743.00;;;8.20
41940;BMP180;23057;48.554;14.454;2023-02-01T04:23:36;93724.00;;;8.20
41940;BMP180;23057;48.554;14.454;2023-02-01T04:26:07;93723.00;;;8.20
41940;BMP180;23057;48.554;14.454;2023-02-01T04:28:37;93719.00;;;8.10
41940;BMP180;23057;48.554;14.454;2023-02-01T04:31:08;93707.00;;;8.20
41940;BMP180;23057;48.554;14.454;2023-02-01T04:33:39;93713.00;;;8.20
41940;BMP180;23057;48.554;14.454;2023-02-01T04:36:10;93702.00;;;8.20
41940;BMP180;23057;48.554;14.454;2023-02-01T04:38:41;93685.00;;;8.20
41940;BMP180;23057;48.554;14.454;2023-02-01T04:41:11;93691.00;;;8.20
41940;BMP180;23057;48.554;14.454;2023-02-01T04:43:42;93681.00;;;8.20
41940;BMP180;23057;48.554;14.454;2023-02-01T04:46:13;93685.00;;;8.20
41940;BMP180;23057;48.554;14.454;2023-02-01T04:48:44;93696.00;;;8.20
41940;BMP180;23057;48.554;14.454;2023-02-01T04:51:14;93695.00;;;8.20
41940;BMP180;23057;48.554;14.454;2023-02-01T04:53:45;93704.00;;;8.20
41940;BMP180;23057;48.554;14.454;2023-02-01T04:56:16;93708.00;;;8.20
41940;BMP180;23057;48.554;14.454;2023-02-01T04:58:47;93704.00;;;8.20
41940;BMP180;23057;48.554;14.454;2023-02-01T05:01:17;93698.00;;;8.20
41940;BMP180;23057;48.554;14.454;2023-02-01T05:03:48;93702.00;;;8.20
41940;BMP180;23057;48.554;14.454;2023-02-01T05:06:19;93691.00;;;8.20
41940;BMP180;23057;48.554;14.454;2023-02-01T05:08:50;93691.00;;;8.20
41940;BMP180;23057;48.554;14.454;2023-02-01T05:11:21;93695.00;;;8.30
41940;BMP180;23057;48.554;14.454;2023-02-01T05:14:10;93692.00;;;8.30
41940;BMP180;23057;48.554;14.454;2023-02-01T05:16:41;93692.00;;;8.30
41940;BMP180;23057;48.554;14.454;2023-02-01T05:19:12;93685.00;;;8.40
41940;BMP180;23057;48.554;14.454;2023-02-01T05:21:43;93683.00;;;8.40
41940;BMP180;23057;48.554;14.454;2023-02-01T05:24:14;93687.00;;;8.40
41940;BMP180;23057;48.554;14.454;2023-02-01T05:26:49;93684.00;;;8.40
41940;BMP180;23057;48.554;14.454;2023-02-01T05:29:20;93702.00;;;8.30
41940;BMP180;23057;48.554;14.454;2023-02-01T05:31:51;93709.00;;;8.30
41940;BMP180;23057;48.554;14.454;2023-02-01T05:34:22;93702.00;;;8.30
41940;BMP180;23057;48.554;14.454;2023-02-01T05:36:52;93706.00;;;8.30
41940;BMP180;23057;48.554;14.454;2023-02-01T05:39:23;93706.00;;;8.30
41940;BMP180;23057;48.554;14.454;2023-02-01T05:41:54;93704.00;;;8.30
41940;BMP180;23057;48.554;14.454;2023-02-01T05:44:25;93690.00;;;8.30
41940;BMP180;23057;48.554;14.454;2023-02-01T05:46:56;93679.00;;;8.30
41940;BMP180;23057;48.554;14.454;2023-02-01T05:49:27;93671.00;;;8.30
41940;BMP180;23057;48.554;14.454;2023-02-01T05:51:58;93695.00;;;8.30
41940;BMP180;23057;48.554;14.454;2023-02-01T05:54:28;93697.00;;;8.30
41940;BMP180;23057;48.554;14.454;2023-02-01T05:56:59;93687.00;;;8.30
41940;BMP180;23057;48.554;14.454;2023-02-01T05:59:30;93703.00;;;8.30
41940;BMP180;23057;48.554;14.454;2023-02-01T06:02:01;93709.00;;;8.30
41940;BMP180;23057;48.554;14.454;2023-02-01T06:04:31;93691.00;;;8.30
41940;BMP180;23057;48.554;14.454;2023-02-01T06:07:02;93705.00;;;8.30
41940;BMP180;23057;48.554;14.454;2023-02-01T06:09:34;93696.00;;;8.30
41940;BMP180;23057;48.554;14.454;2023-02-01T06:12:05;93701.00;;;8.30
41940;BMP180;23057;48.554;14.454;2023-02-01T06:14:36;93699.00;;;8.30
41940;BMP180;23057;48.554;14.454;2023-02-01T06:17:07;93700.00;;;8.30
41940;BMP180;23057;48.554;14.454;2023-02-01T06:19:38;93695.00;;;8.30
41940;BMP180;23057;48.554;14.454;2023-02-01T06:22:10;93695.00;;;8.30
41940;BMP180;23057;48.554;14.454;2023-02-01T06:24:41;93693.00;;;8.30
41940;BMP180;23057;48.554;14.454;2023-02-01T06:27:12;93687.00;;;8.40
41940;BMP180;23057;48.554;14.454;2023-02-01T06:29:43;93698.00;;;8.30
41940;BMP180;23057;48.554;14.454;2023-02-01T06:32:14;93693.00;;;8.30
41940;BMP180;23057;48.554;14.454;2023-02-01T06:34:45;93692.00;;;8.30
41940;BMP180;23057;48.554;14.454;2023-02-01T06:37:15;93692.00;;;8.30
41940;BMP180;23057;48.554;14.454;2023-02-01T06:39:46;93700.00;;;8.40
41940;BMP180;23057;48.554;14.454;2023-02-01T06:42:17;93692.00;;;8.40
41940;BMP180;23057;48.554;14.454;2023-02-01T06:44:48;93698.00;;;8.40
41940;BMP180;23057;48.554;14.454;2023-02-01T06:47:18;93689.00;;;8.30
41940;BMP180;23057;48.554;14.454;2023-02-01T06:49:49;93691.00;;;8.40
41940;BMP180;23057;48.554;14.454;2023-02-01T06:52:20;93692.00;;;8.30
41940;BMP180;23057;48.554;14.454;2023-02-01T06:54:51;93703.00;;;8.30
41940;BMP180;23057;48.554;14.454;2023-02-01T06:57:21;93712.00;;;8.30
41940;BMP180;23057;48.554;14.454;2023-02-01T06:59:52;93707.00;;;8.30
41940;BMP180;23057;48.554;14.454;2023-02-01T07:02:23;93715.00;;;8.30
41940;BMP180;23057;48.554;14.454;2023-02-01T07:04:53;93719.00;;;8.30
41940;BMP180;23057;48.554;14.454;2023-02-01T07:07:24;93719.00;;;8.30
41940;BMP180;23057;48.554;14.454;2023-02-01T07:09:55;93717.00;;;8.30
41940;BMP180;23057;48.554;14.454;2023-02-01T07:12:26;93703.00;;;8.30
41940;BMP180;23057;48.554;14.454;2023-02-01T07:14:56;93702.00;;;8.40
41940;BMP180;23057;48.554;14.454;2023-02-01T07:17:27;93695.00;;;8.40
41940;BMP180;23057;48.554;14.454;2023-02-01T07:19:59;93678.00;;;8.40
41940;BMP180;23057;48.554;14.454;2023-02-01T07:22:31;93680.00;;;8.50
41940;BMP180;23057;48.554;14.454;2023-02-01T07:25:02;93681.00;;;8.50
41940;BMP180;23057;48.554;14.454;2023-02-01T07:27:35;93682.00;;;8.50
41940;BMP180;23057;48.554;14.454;2023-02-01T07:30:07;93674.00;;;8.50
41940;BMP180;23057;48.554;14.454;2023-02-01T07:32:38;93673.00;;;8.50
41940;BMP180;23057;48.554;14.454;2023-02-01T07:35:09;93673.00;;;8.50
41940;BMP180;23057;48.554;14.454;2023-02-01T07:37:40;93679.00;;;8.50
41940;BMP180;23057;48.554;14.454;2023-02-01T07:40:11;93675.00;;;8.50
41940;BMP180;23057;48.554;14.454;2023-02-01T07:42:42;93675.00;;;8.50
41940;BMP180;23057;48.554;14.454;2023-02-01T07:45:13;93681.00;;;8.50
41940;BMP180;23057;48.554;14.454;2023-02-01T07:47:44;93671.00;;;8.60
41940;BMP180;23057;48.554;14.454;2023-02-01T07:50:15;93664.00;;;8.60
41940;BMP180;23057;48.554;14.454;2023-02-01T07:52:46;93669.00;;;8.60
41940;BMP180;23057;48.554;14.454;2023-02-01T07:55:16;93673.00;;;8.60
41940;BMP180;23057;48.554;14.454;2023-02-01T07:57:47;93667.00;;;8.60
41940;BMP180;23057;48.554;14.454;2023-02-01T08:00:19;93667.00;;;8.60
41940;BMP180;23057;48.554;14.454;2023-02-01T08:03:09;93655.00;;;8.60
41940;BMP180;23057;48.554;14.454;2023-02-01T08:05:39;93645.00;;;8.70
41940;BMP180;23057;48.554;14.454;2023-02-01T08:08:10;93643.00;;;8.70
41940;BMP180;23057;48.554;14.454;2023-02-01T08:10:41;93653.00;;;8.80
41940;BMP180;23057;48.554;14.454;2023-02-01T08:13:12;93645.00;;;8.90
41940;BMP180;23057;48.554;14.454;2023-02-01T08:15:42;93643.00;;;9.10
41940;BMP180;23057;48.554;14.454;2023-02-01T08:18:13;93641.00;;;9.10
41940;BMP180;23057;48.554;14.454;2023-02-01T08:20:46;93638.00;;;9.10
41940;BMP180;23057;48.554;14.454;2023-02-01T08:23:19;93639.00;;;9.00
41940;BMP180;23057;48.554;14.454;2023-02-01T08:25:50;93647.00;;;9.00
41940;BMP180;23057;48.554;14.454;2023-02-01T08:28:21;93651.00;;;9.00
41940;BMP180;23057;48.554;14.454;2023-02-01T08:30:52;93634.00;;;9.00
41940;BMP180;23057;48.554;14.454;2023-02-01T08:33:23;93637.00;;;8.90
41940;BMP180;23057;48.554;14.454;2023-02-01T08:35:54;93639.00;;;8.90
41940;BMP180;23057;48.554;14.454;2023-02-01T08:38:24;93639.00;;;8.80
41940;BMP180;23057;48.554;14.454;2023-02-01T08:40:55;93648.00;;;8.70
41940;BMP180;23057;48.554;14.454;2023-02-01T08:43:26;93646.00;;;8.70
41940;BMP180;23057;48.554;14.454;2023-02-01T08:45:57;93638.00;;;8.70
41940;BMP180;23057;48.554;14.454;2023-02-01T08:48:28;93646.00;;;8.60
41940;BMP180;23057;48.554;14.454;2023-02-01T08:51:07;93641.00;;;8.60
41940;BMP180;23057;48.554;14.454;2023-02-01T08:53:40;93644.00;;;8.60
41940;BMP180;23057;48.554;14.454;2023-02-01T08:56:14;93635.00;;;8.60
41940;BMP180;23057;48.554;14.454;2023-02-01T08:58:45;93642.00;;;8.50
41940;BMP180;23057;48.554;14.454;2023-02-01T09:01:16;93641.00;;;8.60
41940;BMP180;23057;48.554;14.454;2023-02-01T09:03:47;93636.00;;;8.60
41940;BMP180;23057;48.554;14.454;2023-02-01T09:06:18;93642.00;;;8.60
41940;BMP180;23057;48.554;14.454;2023-02-01T09:08:49;93639.00;;;8.50
41940;BMP180;23057;48.554;14.454;2023-02-01T09:11:19;93633.00;;;8.50
41940;BMP180;23057;48.554;14.454;2023-02-01T09:13:50;93639.00;;;8.50
41940;BMP180;23057;48.554;14.454;2023-02-01T09:16:21;93642.00;;;8.50
41940;BMP180;23057;48.554;14.454;2023-02-01T09:18:52;93651.00;;;8.50
41940;BMP180;23057;48.554;14.454;2023-02-01T09:21:23;93655.00;;;8.50
41940;BMP180;23057;48.554;14.454;2023-02-01T09:23:54;93651.00;;;8.50
41940;BMP180;23057;48.554;14.454;2023-02-01T09:26:25;93660.00;;;8.50
41940;BMP180;23057;48.554;14.454;2023-02-01T09:28:56;93647.00;;;8.60
41940;BMP180;23057;48.554;14.454;2023-02-01T09:31:27;93653.00;;;8.70
41940;BMP180;23057;48.554;14.454;2023-02-01T09:33:58;93665.00;;;8.80
41940;BMP180;23057;48.554;14.454;2023-02-01T09:36:28;93654.00;;;8.90
41940;BMP180;23057;48.554;14.454;2023-02-01T09:39:00;93657.00;;;8.90
41940;BMP180;23057;48.554;14.454;2023-02-01T09:47:29;93647.00;;;9.10
41940;BMP180;23057;48.554;14.454;2023-02-01T09:52:38;93646.00;;;9.40
41940;BMP180;23057;48.554;14.454;2023-02-01T09:55:18;93648.00;;;9.50
41940;BMP180;23057;48.554;14.454;2023-02-01T09:58:01;93630.00;;;9.60
41940;BMP180;23057;48.554;14.454;2023-02-01T10:00:38;93636.00;;;9.80
41940;BMP180;23057;48.554;14.454;2023-02-01T10:03:12;93627.00;;;9.90
41940;BMP180;23057;48.554;14.454;2023-02-01T10:05:55;93630.00;;;10.00
41940;BMP180;23057;48.554;14.454;2023-02-01T10:09:02;93638.00;;;10.00
41940;BMP180;23057;48.554;14.454;2023-02-01T10:12:04;93641.00;;;10.00
41940;BMP180;23057;48.554;14.454;2023-02-01T10:26:37;93644.00;;;9.80
41940;BMP180;23057;48.554;14.454;2023-02-01T10:29:17;93659.00;;;9.70
41940;BMP180;23057;48.554;14.454;2023-02-01T10:31:50;93665.00;;;9.60
41940;BMP180;23057;48.554;14.454;2023-02-01T10:34:26;93672.00;;;9.50
41940;BMP180;23057;48.554;14.454;2023-02-01T10:39:52;93670.00;;;9.20
41940;BMP180;23057;48.554;14.454;2023-02-01T10:42:29;93663.00;;;9.10
41940;BMP180;23057;48.554;14.454;2023-02-01T10:45:02;93657.00;;;9.10
41940;BMP180;23057;48.554;14.454;2023-02-01T10:47:34;93668.00;;;9.00
41940;BMP180;23057;48.554;14.454;2023-02-01T10:53:13;93646.00;;;9.00
41940;BMP180;23057;48.554;14.454;2023-02-01T10:55:51;93632.00;;;9.00
41940;BMP180;23057;48.554;14.454;2023-02-01T10:58:31;93641.00;;;9.00
41940;BMP180;23057;48.554;14.454;2023-02-01T11:01:07;93634.00;;;9.00
41940;BMP180;23057;48.554;14.454;2023-02-01T11:03:56;93649.00;;;8.90
41940;BMP180;23057;48.554;14.454;2023-02-01T11:06:32;93639.00;;;8.80
41940;BMP180;23057;48.554;14.454;2023-02-01T11:14:20;93654.00;;;8.70
41940;BMP180;23057;48.554;14.454;2023-02-01T11:17:15;93654.00;;;8.60
41940;BMP180;23057;48.554;14.454;2023-02-01T11:20:04;93653.00;;;8.50
41940;BMP180;23057;48.554;14.454;2023-02-01T11:22:53;93640.00;;;8.60
41940;BMP180;23057;48.554;14.454;2023-02-01T11:25:26;93626.00;;;8.80
41940;BMP180;23057;48.554;14.454;2023-02-01T11:27:57;93648.00;;;8.90
41940;BMP180;23057;48.554;14.454;2023-02-01T11:30:41;93648.00;;;9.00
41940;BMP180;23057;48.554;14.454;2023-02-01T11:33:18;93647.00;;;9.00
41940;BMP180;23057;48.554;14.454;2023-02-01T11:35:51;93643.00;;;9.00
41940;BMP180;23057;48.554;14.454;2023-02-01T11:38:30;93636.00;;;9.00
41940;BMP180;23057;48.554;14.454;2023-02-01T11:41:13;93627.00;;;9.00
41940;BMP180;23057;48.554;14.454;2023-02-01T11:43:59;93624.00;;;9.10
41940;BMP180;23057;48.554;14.454;2023-02-01T11:46:32;93626.00;;;9.10
41940;BMP180;23057;48.554;14.454;2023-02-01T11:49:34;93635.00;;;9.20
41940;BMP180;23057;48.554;14.454;2023-02-01T11:52:15;93622.00;;;9.20
41940;BMP180;23057;48.554;14.454;2023-02-01T12:14:01;93626.00;;;9.00
41940;BMP180;23057;48.554;14.454;2023-02-01T12:35:13;93602.00;;;8.60
41940;BMP180;23057;48.554;14.454;2023-02-01T12:44:47;93599.00;;;8.60
41940;BMP180;23057;48.554;14.454;2023-02-01T12:47:31;93596.00;;;8.60
41940;BMP180;23057;48.554;14.454;2023-02-01T12:50:19;93592.00;;;8.60
41940;BMP180;23057;48.554;14.454;2023-02-01T12:53:44;93586.00;;;8.60
41940;BMP180;23057;48.554;14.454;2023-02-01T12:56:05;93587.00;;;8.60
41940;BMP180;23057;48.554;14.454;2023-02-01T12:58:59;93589.00;;;8.70
41940;BMP180;23057;48.554;14.454;2023-02-01T13:01:39;93605.00;;;8.80
41940;BMP180;23057;48.554;14.454;2023-02-01T13:04:20;93605.00;;;8.90
41940;BMP180;23057;48.554;14.454;2023-02-01T13:12:38;93629.00;;;9.00
41940;BMP180;23057;48.554;14.454;2023-02-01T13:17:51;93646.00;;;9.20
41940;BMP180;23057;48.554;14.454;2023-02-01T13:20:34;93642.00;;;9.40
41940;BMP180;23057;48.554;14.454;2023-02-01T13:25:59;93639.00;;;9.50
41940;BMP180;23057;48.554;14.454;2023-02-01T13:43:13;93627.00;;;9.10
41940;BMP180;23057;48.554;14.454;2023-02-01T13:45:51;93634.00;;;9.00
41940;BMP180;23057;48.554;14.454;2023-02-01T13:48:29;93628.00;;;8.90
41940;BMP180;23057;48.554;14.454;2023-02-01T13:51:06;93647.00;;;8.80
41940;BMP180;23057;48.554;14.454;2023-02-01T13:53:45;93655.00;;;8.70
41940;BMP180;23057;48.554;14.454;2023-02-01T13:56:20;93658.00;;;8.70
41940;BMP180;23057;48.554;14.454;2023-02-01T13:58:54;93647.00;;;8.70
41940;BMP180;23057;48.554;14.454;2023-02-01T14:04:00;93642.00;;;8.60
41940;BMP180;23057;48.554;14.454;2023-02-01T14:06:38;93640.00;;;8.60
41940;BMP180;23057;48.554;14.454;2023-02-01T14:09:31;93642.00;;;8.60
41940;BMP180;23057;48.554;14.454;2023-02-01T14:12:42;93641.00;;;8.60
41940;BMP180;23057;48.554;14.454;2023-02-01T14:15:22;93627.00;;;8.50
41940;BMP180;23057;48.554;14.454;2023-02-01T14:17:57;93637.00;;;8.60
41940;BMP180;23057;48.554;14.454;2023-02-01T14:20:42;93625.00;;;8.60
41940;BMP180;23057;48.554;14.454;2023-02-01T14:23:18;93620.00;;;8.50
41940;BMP180;23057;48.554;14.454;2023-02-01T14:26:04;93609.00;;;8.60
41940;BMP180;23057;48.554;14.454;2023-02-01T14:28:50;93608.00;;;8.50
41940;BMP180;23057;48.554;14.454;2023-02-01T14:34:31;93622.00;;;8.60
41940;BMP180;23057;48.554;14.454;2023-02-01T14:40:25;93612.00;;;8.60
41940;BMP180;23057;48.554;14.454;2023-02-01T14:42:58;93620.00;;;8.50
41940;BMP180;23057;48.554;14.454;2023-02-01T14:50:41;93616.00;;;8.60
41940;BMP180;23057;48.554;14.454;2023-02-01T14:53:18;93609.00;;;8.50
41940;BMP180;23057;48.554;14.454;2023-02-01T14:56:06;93611.00;;;8.50
41940;BMP180;23057;48.554;14.454;2023-02-01T15:01:35;93623.00;;;8.50
41940;BMP180;23057;48.554;14.454;2023-02-01T15:04:12;93616.00;;;8.50
41940;BMP180;23057;48.554;14.454;2023-02-01T15:06:48;93611.00;;;8.50
41940;BMP180;23057;48.554;14.454;2023-02-01T15:09:38;93597.00;;;8.50
41940;BMP180;23057;48.554;14.454;2023-02-01T15:12:17;93593.00;;;8.50
41940;BMP180;23057;48.554;14.454;2023-02-01T15:15:18;93588.00;;;8.60
41940;BMP180;23057;48.554;14.454;2023-02-01T15:17:58;93582.00;;;8.50
41940;BMP180;23057;48.554;14.454;2023-02-01T15:20:33;93580.00;;;8.50
41940;BMP180;23057;48.554;14.454;2023-02-01T15:23:14;93597.00;;;8.60
41940;BMP180;23057;48.554;14.454;2023-02-01T15:25:47;93607.00;;;8.60
41940;BMP180;23057;48.554;14.454;2023-02-01T15:28:18;93590.00;;;8.60
41940;BMP180;23057;48.554;14.454;2023-02-01T15:31:04;93599.00;;;8.60
41940;BMP180;23057;48.554;14.454;2023-02-01T15:33:36;93617.00;;;8.60
41940;BMP180;23057;48.554;14.454;2023-02-01T15:36:11;93608.00;;;8.60
41940;BMP180;23057;48.554;14.454;2023-02-01T15:38:47;93601.00;;;8.60
41940;BMP180;23057;48.554;14.454;2023-02-01T15:41:20;93599.00;;;8.60
41940;BMP180;23057;48.554;14.454;2023-02-01T15:46:39;93607.00;;;8.60
41940;BMP180;23057;48.554;14.454;2023-02-01T15:49:36;93602.00;;;8.60
41940;BMP180;23057;48.554;14.454;2023-02-01T15:52:54;93578.00;;;8.50
41940;BMP180;23057;48.554;14.454;2023-02-01T15:55:40;93610.00;;;8.50
41940;BMP180;23057;48.554;14.454;2023-02-01T15:58:18;93611.00;;;8.40
41940;BMP180;23057;48.554;14.454;2023-02-01T16:00:57;93619.00;;;8.40
41940;BMP180;23057;48.554;14.454;2023-02-01T16:03:38;93615.00;;;8.40
41940;BMP180;23057;48.554;14.454;2023-02-01T16:06:27;93604.00;;;8.40
41940;BMP180;23057;48.554;14.454;2023-02-01T16:09:01;93610.00;;;8.40
41940;BMP180;23057;48.554;14.454;2023-02-01T16:12:00;93608.00;;;8.40
41940;BMP180;23057;48.554;14.454;2023-02-01T16:14:32;93612.00;;;8.40
41940;BMP180;23057;48.554;14.454;2023-02-01T16:17:03;93610.00;;;8.40
41940;BMP180;23057;48.554;14.454;2023-02-01T16:19:33;93604.00;;;8.40
41940;BMP180;23057;48.554;14.454;2023-02-01T16:22:04;93606.00;;;8.40
41940;BMP180;23057;48.554;14.454;2023-02-01T16:24:35;93600.00;;;8.40
41940;BMP180;23057;48.554;14.454;2023-02-01T16:27:05;93595.00;;;8.40
41940;BMP180;23057;48.554;14.454;2023-02-01T16:29:37;93608.00;;;8.40
41940;BMP180;23057;48.554;14.454;2023-02-01T16:32:17;93606.00;;;8.40
41940;BMP180;23057;48.554;14.454;2023-02-01T16:34:49;93607.00;;;8.40
41940;BMP180;23057;48.554;14.454;2023-02-01T16:37:22;93607.00;;;8.40
41940;BMP180;23057;48.554;14.454;2023-02-01T16:39:54;93597.00;;;8.30
41940;BMP180;23057;48.554;14.454;2023-02-01T16:42:25;93610.00;;;8.40
41940;BMP180;23057;48.554;14.454;2023-02-01T16:44:55;93605.00;;;8.40
41940;BMP180;23057;48.554;14.454;2023-02-01T16:47:26;93597.00;;;8.40
41940;BMP180;23057;48.554;14.454;2023-02-01T16:49:57;93596.00;;;8.40
41940;BMP180;23057;48.554;14.454;2023-02-01T16:52:28;93588.00;;;8.40
41940;BMP180;23057;48.554;14.454;2023-02-01T16:54:58;93590.00;;;8.40
41940;BMP180;23057;48.554;14.454;2023-02-01T16:57:29;93580.00;;;8.40
41940;BMP180;23057;48.554;14.454;2023-02-01T17:00:00;93602.00;;;8.30
41940;BMP180;23057;48.554;14.454;2023-02-01T17:02:34;93599.00;;;8.40
41940;BMP180;23057;48.554;14.454;2023-02-01T17:05:05;93598.00;;;8.40
41940;BMP180;23057;48.554;14.454;2023-02-01T17:07:38;93584.00;;;8.40
41940;BMP180;23057;48.554;14.454;2023-02-01T17:10:22;93591.00;;;8.40
41940;BMP180;23057;48.554;14.454;2023-02-01T17:12:55;93592.00;;;8.40
41940;BMP180;23057;48.554;14.454;2023-02-01T17:15:31;93590.00;;;8.40
41940;BMP180;23057;48.554;14.454;2023-02-01T17:18:05;93599.00;;;8.40
41940;BMP180;23057;48.554;14.454;2023-02-01T17:20:41;93591.00;;;8.40
41940;BMP180;23057;48.554;14.454;2023-02-01T17:23:12;93603.00;;;8.40
41940;BMP180;23057;48.554;14.454;2023-02-01T17:25:43;93609.00;;;8.40
41940;BMP180;23057;48.554;14.454;2023-02-01T17:28:14;93598.00;;;8.40